createdAt,value
2023-03-25T00:01:17.845Z,10.15
2023-03-25T00:03:46.992Z,10.43
2023-03-25T00:06:16.893Z,11.68
2023-03-25T00:08:44.741Z,10.07
2023-03-25T00:11:12.787Z,9.40
2023-03-25T00:13:40.919Z,7.80
2023-03-25T00:16:10.558Z,7.95
2023-03-25T00:18:38.579Z,9.05
2023-03-25T00:21:12.141Z,7.30
2023-03-25T00:23:42.007Z,8.10
2023-03-25T00:26:10.128Z,8.90
2023-03-25T00:28:39.224Z,10.35
2023-03-25T00:31:11.728Z,11.25
2023-03-25T00:33:41.953Z,10.70
2023-03-25T00:36:13.815Z,8.55
2023-03-25T00:38:43.753Z,10.82
2023-03-25T00:41:23.434Z,12.00
2023-03-25T00:44:12.581Z,12.40
2023-03-25T00:46:40.593Z,11.85
2023-03-25T00:49:10.112Z,13.80
2023-03-25T00:51:52.838Z,11.73
2023-03-25T00:54:22.668Z,10.25
2023-03-25T00:56:52.858Z,11.40
2023-03-25T00:59:20.983Z,10.98
2023-03-25T01:01:49.107Z,11.23
2023-03-25T01:04:19.163Z,10.32
2023-03-25T01:06:52.547Z,14.52
2023-03-25T01:09:21.473Z,11.50
2023-03-25T01:11:49.627Z,12.07
2023-03-25T01:14:21.201Z,11.90
2023-03-25T01:16:49.195Z,10.05
2023-03-25T01:19:16.982Z,10.82
2023-03-25T01:21:46.068Z,9.57
2023-03-25T01:24:15.702Z,10.07
2023-03-25T01:26:44.534Z,8.90
2023-03-25T01:29:16.652Z,9.75
2023-03-25T01:31:45.958Z,13.43
2023-03-25T01:34:15.260Z,7.78
2023-03-25T01:36:46.903Z,10.70
2023-03-25T01:39:19.951Z,11.38
2023-03-25T01:41:51.276Z,10.18
2023-03-25T01:44:22.847Z,9.95
2023-03-25T01:46:54.590Z,9.60
2023-03-25T01:49:24.864Z,10.25
2023-03-25T01:52:01.481Z,10.23
2023-03-25T01:54:29.797Z,9.35
2023-03-25T01:56:58.222Z,8.60
2023-03-25T01:59:28.831Z,8.00
2023-03-25T02:02:03.155Z,9.25
2023-03-25T02:04:59.305Z,9.48
2023-03-25T02:07:31.127Z,9.73
2023-03-25T02:10:19.770Z,8.05
2023-03-25T02:12:51.937Z,10.15
2023-03-25T02:15:20.726Z,10.57
2023-03-25T02:17:57.942Z,11.63
2023-03-25T02:20:58.802Z,12.30
2023-03-25T02:24:03.236Z,14.95
2023-03-25T02:27:14.403Z,15.13
2023-03-25T02:30:28.086Z,14.80
2023-03-25T02:33:14.701Z,14.18
2023-03-25T02:36:14.213Z,14.07
2023-03-25T02:38:49.042Z,13.98
2023-03-25T02:41:39.113Z,11.75
2023-03-25T02:44:21.649Z,12.65
2023-03-25T02:46:53.997Z,13.23
2023-03-25T02:49:36.261Z,11.48
2023-03-25T02:52:11.432Z,13.77
2023-03-25T02:54:42.114Z,13.88
2023-03-25T02:57:13.649Z,10.63
2023-03-25T02:59:42.102Z,11.57
2023-03-25T03:02:11.955Z,10.55
2023-03-25T03:04:56.233Z,11.57
2023-03-25T03:07:36.774Z,8.57
2023-03-25T03:10:37.741Z,10.52
2023-03-25T03:13:47.511Z,15.93
2023-03-25T03:16:26.433Z,9.18
2023-03-25T03:18:59.411Z,12.50
2023-03-25T03:21:55.957Z,10.45
2023-03-25T03:24:28.107Z,10.82
2023-03-25T03:27:24.032Z,10.80
2023-03-25T03:30:04.778Z,9.00
2023-03-25T03:33:10.244Z,9.57
2023-03-25T03:35:49.808Z,8.98
2023-03-25T03:38:21.481Z,11.23
2023-03-25T03:40:55.793Z,8.57
2023-03-25T03:44:16.292Z,10.23
2023-03-25T03:47:12.187Z,10.10
2023-03-25T03:49:46.093Z,10.65
2023-03-25T03:52:22.743Z,10.18
2023-03-25T03:55:00.170Z,7.72
2023-03-25T03:57:41.961Z,7.57
2023-03-25T04:00:19.702Z,9.25
2023-03-25T04:03:01.128Z,7.53
2023-03-25T04:05:33.507Z,8.30
2023-03-25T04:08:12.059Z,8.63
2023-03-25T04:10:52.950Z,12.13
2023-03-25T04:13:23.793Z,6.93
2023-03-25T04:15:52.049Z,7.95
2023-03-25T04:18:23.575Z,8.85
2023-03-25T04:20:51.332Z,10.70
2023-03-25T04:23:20.425Z,10.07
2023-03-25T04:25:55.251Z,7.97
2023-03-25T04:28:24.473Z,7.38
2023-03-25T04:30:55.958Z,10.32
2023-03-25T04:33:24.530Z,8.90
2023-03-25T04:35:53.029Z,6.05
2023-03-25T04:38:21.135Z,5.30
2023-03-25T04:40:49.254Z,7.47
2023-03-25T04:43:17.926Z,7.55
2023-03-25T04:45:55.459Z,7.95
2023-03-25T04:48:30.951Z,6.93
2023-03-25T04:51:00.022Z,7.38
2023-03-25T04:53:28.844Z,5.43
2023-03-25T04:55:56.908Z,6.38
2023-03-25T04:58:27.350Z,8.05
2023-03-25T05:00:55.591Z,7.47
2023-03-25T05:03:24.656Z,7.95
2023-03-25T05:05:53.704Z,6.20
2023-03-25T05:08:24.258Z,6.95
2023-03-25T05:10:52.779Z,6.05
2023-03-25T05:13:21.058Z,5.45
2023-03-25T05:15:49.012Z,7.80
2023-03-25T05:18:17.607Z,5.53
2023-03-25T05:20:47.183Z,5.03
2023-03-25T05:23:18.713Z,6.25
2023-03-25T05:25:48.027Z,7.88
2023-03-25T05:28:16.558Z,9.70
2023-03-25T05:30:46.730Z,6.80
2023-03-25T05:33:17.790Z,8.38
2023-03-25T05:35:46.309Z,8.38
2023-03-25T05:38:19.100Z,11.00
2023-03-25T05:40:48.218Z,6.15
2023-03-25T05:43:20.079Z,10.05
2023-03-25T05:45:47.844Z,8.27
2023-03-25T05:48:15.683Z,7.95
2023-03-25T05:50:43.850Z,7.07
2023-03-25T05:53:15.626Z,8.50
2023-03-25T05:55:43.755Z,8.00
2023-03-25T05:58:13.289Z,7.93
2023-03-25T06:00:42.440Z,9.18
2023-03-25T06:03:11.495Z,8.55
2023-03-25T06:05:39.876Z,10.52
2023-03-25T06:08:08.574Z,7.97
2023-03-25T06:10:36.947Z,8.07
2023-03-25T06:13:04.710Z,8.63
2023-03-25T06:15:39.489Z,9.57
2023-03-25T06:18:07.667Z,5.10
2023-03-25T06:20:35.511Z,6.50
2023-03-25T06:23:03.331Z,8.57
2023-03-25T06:25:31.833Z,5.88
2023-03-25T06:28:03.873Z,6.68
2023-03-25T06:30:31.797Z,5.60
2023-03-25T06:33:06.176Z,5.72
2023-03-25T06:35:35.409Z,5.47
2023-03-25T06:38:03.848Z,4.18
2023-03-25T06:40:45.633Z,7.47
2023-03-25T06:43:13.975Z,6.53
2023-03-25T06:46:08.797Z,9.70
2023-03-25T06:48:58.574Z,5.80
2023-03-25T06:51:26.514Z,4.90
2023-03-25T06:53:54.493Z,12.48
2023-03-25T06:56:22.266Z,11.75
2023-03-25T06:58:50.340Z,6.82
2023-03-25T07:01:18.674Z,7.93
2023-03-25T07:03:46.636Z,8.25
2023-03-25T07:06:20.790Z,9.90
2023-03-25T07:08:49.237Z,11.55
2023-03-25T07:11:23.632Z,7.50
2023-03-25T07:13:53.972Z,6.90
2023-03-25T07:16:23.161Z,9.15
2023-03-25T07:18:52.595Z,7.15
2023-03-25T07:21:20.871Z,13.00
2023-03-25T07:23:50.369Z,11.10
2023-03-25T07:26:18.666Z,11.25
2023-03-25T07:28:48.356Z,18.45
2023-03-25T07:31:17.215Z,42.45
2023-03-25T07:33:45.739Z,41.53
2023-03-25T07:36:14.638Z,31.20
2023-03-25T07:38:44.485Z,16.95
2023-03-25T07:41:13.582Z,9.85
2023-03-25T07:43:52.117Z,8.32
2023-03-25T07:46:32.515Z,7.68
2023-03-25T07:49:01.054Z,6.97
2023-03-25T07:51:32.275Z,6.75
2023-03-25T07:54:04.997Z,6.95
2023-03-25T07:56:33.912Z,4.15
2023-03-25T07:59:02.678Z,6.95
2023-03-25T08:01:31.172Z,4.90
2023-03-25T08:03:59.017Z,8.40
2023-03-25T08:06:27.348Z,5.75
2023-03-25T08:08:56.148Z,6.57
2023-03-25T08:11:23.968Z,4.82
2023-03-25T08:13:52.117Z,5.60
2023-03-25T08:16:19.868Z,6.88
2023-03-25T08:18:47.837Z,7.32
2023-03-25T08:21:16.254Z,4.97
2023-03-25T08:23:44.733Z,6.65
2023-03-25T08:26:12.425Z,5.20
2023-03-25T08:28:40.192Z,7.13
2023-03-25T08:31:09.142Z,5.20
2023-03-25T08:33:41.345Z,4.47
2023-03-25T08:36:14.366Z,6.80
2023-03-25T08:38:42.425Z,6.90
2023-03-25T08:41:10.208Z,5.78
2023-03-25T08:43:38.212Z,7.07
2023-03-25T08:46:06.354Z,5.93
2023-03-25T08:48:34.274Z,8.68
2023-03-25T08:51:02.489Z,6.82
2023-03-25T08:53:30.712Z,5.35
2023-03-25T08:55:59.568Z,8.38
2023-03-25T08:58:28.100Z,7.47
2023-03-25T09:00:57.649Z,9.88
2023-03-25T09:03:27.560Z,7.22
2023-03-25T09:05:55.495Z,7.65
2023-03-25T09:08:23.765Z,7.38
2023-03-25T09:10:51.590Z,5.55
2023-03-25T09:13:19.415Z,7.03
2023-03-25T09:15:47.519Z,5.68
2023-03-25T09:18:15.625Z,9.45
2023-03-25T09:20:48.493Z,5.82
2023-03-25T09:23:16.496Z,9.25
2023-03-25T09:25:44.758Z,7.63
2023-03-25T09:28:12.818Z,7.35
2023-03-25T09:30:41.386Z,7.63
2023-03-25T09:33:10.242Z,8.48
2023-03-25T09:35:41.180Z,7.03
2023-03-25T09:38:09.768Z,10.57
2023-03-25T09:40:42.255Z,9.30
2023-03-25T09:43:52.236Z,8.60
2023-03-25T09:46:21.838Z,10.52
2023-03-25T09:48:54.563Z,11.75
2023-03-25T09:51:42.461Z,14.80
2023-03-25T09:54:28.854Z,11.52
2023-03-25T09:57:02.786Z,13.38
2023-03-25T09:59:39.693Z,9.52
2023-03-25T10:02:47.027Z,8.43
2023-03-25T10:05:49.803Z,9.68
2023-03-25T10:08:17.853Z,10.70
2023-03-25T10:11:13.019Z,9.93
2023-03-25T10:14:01.665Z,10.40
2023-03-25T10:16:57.674Z,9.50
2023-03-25T10:19:36.394Z,9.10
2023-03-25T10:22:05.372Z,9.90
2023-03-25T10:24:56.773Z,11.15
2023-03-25T10:27:41.774Z,9.05
2023-03-25T10:30:21.195Z,7.25
2023-03-25T10:33:01.974Z,8.25
2023-03-25T10:35:34.225Z,9.13
2023-03-25T10:38:18.822Z,5.63
2023-03-25T10:40:53.579Z,8.38
2023-03-25T10:43:38.375Z,9.50
2023-03-25T10:46:22.260Z,10.10
2023-03-25T10:48:51.112Z,7.25
2023-03-25T10:51:39.180Z,10.85
2023-03-25T10:54:07.537Z,12.98
2023-03-25T10:56:41.317Z,11.70
2023-03-25T10:59:32.667Z,12.07
2023-03-25T11:02:04.065Z,10.73
2023-03-25T11:04:37.558Z,8.35
2023-03-25T11:07:19.593Z,9.48
2023-03-25T11:09:48.840Z,11.88
2023-03-25T11:12:27.345Z,8.50
2023-03-25T11:15:01.977Z,13.80
2023-03-25T11:17:30.098Z,12.00
2023-03-25T11:20:11.216Z,10.15
2023-03-25T11:22:47.645Z,9.50
2023-03-25T11:25:25.963Z,10.48
2023-03-25T11:28:02.286Z,7.72
2023-03-25T11:30:30.544Z,8.13
2023-03-25T11:33:02.948Z,6.18
2023-03-25T11:35:37.575Z,8.63
2023-03-25T11:38:20.050Z,6.35
2023-03-25T11:40:57.204Z,8.07
2023-03-25T11:46:09.990Z,6.22
2023-03-25T11:48:41.218Z,8.60
2023-03-25T11:51:19.592Z,8.27
2023-03-25T11:53:53.764Z,8.85
2023-03-25T11:56:27.406Z,6.00
2023-03-25T11:59:01.494Z,7.00
2023-03-25T12:01:41.239Z,5.22
2023-03-25T12:04:21.003Z,7.38
2023-03-25T12:06:58.279Z,8.60
2023-03-25T12:09:30.588Z,7.47
2023-03-25T12:12:06.106Z,8.82
2023-03-25T12:14:51.870Z,9.30
2023-03-25T12:17:31.916Z,10.20
2023-03-25T12:20:03.627Z,9.35
2023-03-25T12:23:11.152Z,8.20
2023-03-25T12:25:57.270Z,10.10
2023-03-25T12:28:48.769Z,7.13
2023-03-25T12:31:38.374Z,7.85
2023-03-25T12:34:24.723Z,11.07
2023-03-25T12:37:14.438Z,12.98
2023-03-25T12:40:04.202Z,13.93
2023-03-25T12:42:44.324Z,13.27
2023-03-25T12:45:45.716Z,13.27
2023-03-25T12:48:30.879Z,12.60
2023-03-25T12:51:21.487Z,9.30
2023-03-25T12:54:14.808Z,10.95
2023-03-25T12:57:19.882Z,10.63
2023-03-25T13:00:14.944Z,10.73
2023-03-25T13:02:42.859Z,15.10
2023-03-25T13:05:50.475Z,11.52
2023-03-25T13:08:38.649Z,25.08
2023-03-25T13:11:18.514Z,29.65
2023-03-25T13:13:51.465Z,37.53
2023-03-25T13:16:23.983Z,33.45
2023-03-25T13:19:04.017Z,28.85
2023-03-25T13:21:52.883Z,18.42
2023-03-25T13:24:38.919Z,14.32
2023-03-25T13:27:08.658Z,14.45
2023-03-25T13:29:51.641Z,12.23
2023-03-25T13:32:25.989Z,11.02
2023-03-25T13:35:10.903Z,17.52
2023-03-25T13:37:45.392Z,18.42
2023-03-25T13:40:22.641Z,14.95
2023-03-25T13:46:13.155Z,12.20
2023-03-25T13:48:49.645Z,14.32
2023-03-25T13:51:19.774Z,18.17
2023-03-25T13:54:04.555Z,16.83
2023-03-25T13:56:57.793Z,17.13
2023-03-25T13:59:44.488Z,12.07
2023-03-25T14:02:28.748Z,10.10
2023-03-25T14:05:38.004Z,12.82
2023-03-25T14:08:30.570Z,30.55
2023-03-25T14:11:23.105Z,51.22
2023-03-25T14:13:56.668Z,36.55
2023-03-25T14:16:36.662Z,33.42
2023-03-25T14:19:19.999Z,22.85
2023-03-25T14:21:50.385Z,12.57
2023-03-25T14:24:28.738Z,10.07
2023-03-25T14:27:37.605Z,10.68
2023-03-25T14:30:27.278Z,11.40
2023-03-25T14:32:56.627Z,7.35
2023-03-25T14:35:35.046Z,7.38
2023-03-25T14:38:18.656Z,6.78
2023-03-25T14:43:38.194Z,9.32
2023-03-25T14:46:13.437Z,9.43
2023-03-25T14:48:51.988Z,7.28
2023-03-25T14:51:23.416Z,6.03
2023-03-25T14:53:57.596Z,7.47
2023-03-25T14:56:33.383Z,5.47
2023-03-25T14:59:15.766Z,6.30
2023-03-25T15:01:45.723Z,35.25
2023-03-25T15:04:15.783Z,38.45
2023-03-25T15:06:43.890Z,19.63
2023-03-25T15:09:15.395Z,12.88
2023-03-25T15:11:51.600Z,10.10
2023-03-25T15:14:24.975Z,7.22
2023-03-25T15:17:03.900Z,6.35
2023-03-25T15:20:10.091Z,9.07
2023-03-25T15:22:39.157Z,5.13
2023-03-25T15:25:20.104Z,4.28
2023-03-25T15:28:03.017Z,5.18
2023-03-25T15:30:39.100Z,3.65
2023-03-25T15:33:44.552Z,4.55
2023-03-25T15:36:39.957Z,9.77
2023-03-25T15:39:45.148Z,9.90
2023-03-25T15:42:25.335Z,6.68
2023-03-25T15:45:22.148Z,5.82
2023-03-25T15:48:09.073Z,6.38
2023-03-25T15:50:38.563Z,6.53
2023-03-25T15:53:48.113Z,4.38
2023-03-25T15:56:26.500Z,6.57
2023-03-25T15:59:30.247Z,5.40
2023-03-25T16:02:03.454Z,4.53
2023-03-25T16:04:45.239Z,4.68
2023-03-25T16:07:17.852Z,4.20
2023-03-25T16:09:49.452Z,6.05
2023-03-25T16:12:23.366Z,5.88
2023-03-25T16:14:52.684Z,5.03
2023-03-25T16:17:27.907Z,5.57
2023-03-25T16:19:57.153Z,4.60
2023-03-25T16:22:33.532Z,6.38
2023-03-25T16:25:15.194Z,5.40
2023-03-25T16:27:45.868Z,4.22
2023-03-25T16:30:29.254Z,4.88
2023-03-25T16:33:12.194Z,4.65
2023-03-25T16:35:48.791Z,6.60
2023-03-25T16:38:20.267Z,5.90
2023-03-25T16:40:49.968Z,8.52
2023-03-25T16:43:24.484Z,6.60
2023-03-25T16:45:56.034Z,8.75
2023-03-25T16:48:41.699Z,7.00
2023-03-25T16:51:23.477Z,7.28
2023-03-25T16:53:55.975Z,6.25
2023-03-25T16:56:29.984Z,5.95
2023-03-25T16:59:26.345Z,4.18
2023-03-25T17:01:57.651Z,6.68
2023-03-25T17:04:39.397Z,6.32
2023-03-25T17:07:12.670Z,9.25
2023-03-25T17:09:44.167Z,7.43
2023-03-25T17:12:19.416Z,7.32
2023-03-25T17:14:50.508Z,8.02
2023-03-25T17:17:51.766Z,6.53
2023-03-25T17:20:50.437Z,6.63
2023-03-25T17:23:20.118Z,8.75
2023-03-25T17:26:08.315Z,9.52
2023-03-25T17:28:58.730Z,8.50
2023-03-25T17:31:38.088Z,6.85
2023-03-25T17:34:13.576Z,6.43
2023-03-25T17:36:45.512Z,9.20
2023-03-25T17:39:22.991Z,8.25
2023-03-25T17:42:19.139Z,9.75
2023-03-25T17:44:47.078Z,8.27
2023-03-25T17:47:17.891Z,6.47
2023-03-25T17:49:45.969Z,9.02
2023-03-25T17:52:13.854Z,5.30
2023-03-25T17:54:41.633Z,5.85
2023-03-25T17:57:20.811Z,5.95
2023-03-25T17:59:49.256Z,9.07
2023-03-25T18:02:18.059Z,6.82
2023-03-25T18:04:45.873Z,7.78
2023-03-25T18:07:13.740Z,8.00
2023-03-25T18:09:42.129Z,8.23
2023-03-25T18:12:12.688Z,8.65
2023-03-25T18:14:40.575Z,8.57
2023-03-25T18:17:12.613Z,9.40
2023-03-25T18:19:40.962Z,11.23
2023-03-25T18:24:47.048Z,8.05
2023-03-25T18:27:14.831Z,8.40
2023-03-25T18:29:42.516Z,11.07
2023-03-25T18:32:10.489Z,7.13
2023-03-25T18:34:38.452Z,9.05
2023-03-25T18:37:06.547Z,7.80
2023-03-25T18:39:34.495Z,7.70
2023-03-25T18:42:03.059Z,8.88
2023-03-25T18:44:31.049Z,8.50
2023-03-25T18:46:58.809Z,8.48
2023-03-25T18:49:27.566Z,6.97
2023-03-25T18:51:57.405Z,6.57
2023-03-25T18:54:25.185Z,9.70
2023-03-25T18:56:52.888Z,6.40
2023-03-25T18:59:21.696Z,8.43
2023-03-25T19:01:49.547Z,6.72
2023-03-25T19:04:18.351Z,6.47
2023-03-25T19:06:46.812Z,6.60
2023-03-25T19:09:22.775Z,6.00
2023-03-25T19:11:50.836Z,6.38
2023-03-25T19:14:18.956Z,13.52
2023-03-25T19:17:01.076Z,21.30
2023-03-25T19:19:31.623Z,19.50
2023-03-25T19:22:00.476Z,17.13
2023-03-25T19:24:28.740Z,17.45
2023-03-25T19:26:57.261Z,19.05
2023-03-25T19:29:26.280Z,17.42
2023-03-25T19:31:55.402Z,14.48
2023-03-25T19:34:23.284Z,15.93
2023-03-25T19:37:02.667Z,14.52
2023-03-25T19:39:32.180Z,11.60
2023-03-25T19:42:00.312Z,13.52
2023-03-25T19:44:28.147Z,12.27
2023-03-25T19:46:56.230Z,11.65
2023-03-25T19:49:36.772Z,12.05
2023-03-25T19:52:08.045Z,15.43
2023-03-25T19:54:37.581Z,17.45
2023-03-25T19:57:05.449Z,18.27
2023-03-25T19:59:33.430Z,16.75
2023-03-25T20:02:01.821Z,16.35
2023-03-25T20:04:29.862Z,16.00
2023-03-25T20:06:57.822Z,18.13
2023-03-25T20:09:26.093Z,14.98
2023-03-25T20:11:54.172Z,14.32
2023-03-25T20:14:21.955Z,10.88
2023-03-25T20:16:50.040Z,14.18
2023-03-25T20:19:18.037Z,13.95
2023-03-25T20:21:45.895Z,13.57
2023-03-25T20:24:17.818Z,15.48
2023-03-25T20:26:45.798Z,17.85
2023-03-25T20:29:16.107Z,14.55
2023-03-25T20:31:44.155Z,13.90
2023-03-25T20:34:11.972Z,13.25
2023-03-25T20:36:40.370Z,15.20
2023-03-25T20:39:08.465Z,10.48
2023-03-25T20:41:37.361Z,12.35
2023-03-25T20:44:05.476Z,11.80
2023-03-25T20:46:34.549Z,9.25
2023-03-25T20:49:05.821Z,13.65
2023-03-25T20:51:36.292Z,13.40
2023-03-25T20:54:04.874Z,11.70
2023-03-25T20:56:33.962Z,13.43
2023-03-25T20:59:02.113Z,12.13
2023-03-25T21:01:30.318Z,12.02
2023-03-25T21:04:02.375Z,8.95
2023-03-25T21:06:31.087Z,8.80
2023-03-25T21:09:07.118Z,9.57
2023-03-25T21:11:35.406Z,10.65
2023-03-25T21:14:04.509Z,9.70
2023-03-25T21:16:33.052Z,10.55
2023-03-25T21:19:04.305Z,9.13
2023-03-25T21:21:32.700Z,10.05
2023-03-25T21:24:04.022Z,9.75
2023-03-25T21:26:32.615Z,10.40
2023-03-25T21:29:00.660Z,10.35
2023-03-25T21:31:29.296Z,12.63
2023-03-25T21:33:58.957Z,12.05
2023-03-25T21:36:29.466Z,13.98
2023-03-25T21:39:02.339Z,13.57
2023-03-25T21:41:30.789Z,10.90
2023-03-25T21:43:58.631Z,13.43
2023-03-25T21:46:29.576Z,15.43
2023-03-25T21:49:01.379Z,15.02
2023-03-25T21:51:36.138Z,12.45
2023-03-25T21:54:04.013Z,11.77
2023-03-25T21:56:33.703Z,13.32
2023-03-25T21:59:05.873Z,16.48
2023-03-25T22:01:33.994Z,13.25
2023-03-25T22:04:04.385Z,12.48
2023-03-25T22:06:35.108Z,11.57
2023-03-25T22:09:06.197Z,10.23
2023-03-25T22:11:37.738Z,9.68
2023-03-25T22:14:06.550Z,9.55
2023-03-25T22:16:34.503Z,9.80
2023-03-25T22:19:02.709Z,15.27
2023-03-25T22:21:37.092Z,10.57
2023-03-25T22:24:06.655Z,9.23
2023-03-25T22:26:36.807Z,8.52
2023-03-25T22:29:06.891Z,8.52
2023-03-25T22:31:41.140Z,10.50
2023-03-25T22:34:15.131Z,9.65
2023-03-25T22:36:50.442Z,15.45
2023-03-25T22:39:23.379Z,13.40
2023-03-25T22:41:52.098Z,23.48
2023-03-25T22:44:21.114Z,18.17
2023-03-25T22:46:49.948Z,19.60
2023-03-25T22:49:18.714Z,20.73
2023-03-25T22:51:46.736Z,21.17
2023-03-25T22:54:14.624Z,21.17
2023-03-25T22:56:43.899Z,17.88
2023-03-25T22:59:14.034Z,15.65
2023-03-25T23:01:42.484Z,14.13
2023-03-25T23:04:10.636Z,13.13
2023-03-25T23:06:39.525Z,12.70
2023-03-25T23:09:09.516Z,11.90
2023-03-25T23:11:38.801Z,12.57
2023-03-25T23:14:10.755Z,12.07
2023-03-25T23:16:39.198Z,11.80
2023-03-25T23:19:10.032Z,10.95
2023-03-25T23:21:38.508Z,10.43
2023-03-25T23:24:07.065Z,10.48
2023-03-25T23:26:39.500Z,11.77
2023-03-25T23:29:10.049Z,10.55
2023-03-25T23:31:41.416Z,12.02
2023-03-25T23:34:15.568Z,11.05
2023-03-25T23:36:45.522Z,9.85
2023-03-25T23:39:16.184Z,12.90
2023-03-25T23:41:44.262Z,12.20
2023-03-25T23:44:13.369Z,12.20
2023-03-25T23:46:42.329Z,12.65
2023-03-25T23:49:12.699Z,12.77
2023-03-25T23:51:42.190Z,13.10
2023-03-25T23:54:12.643Z,11.45
2023-03-25T23:56:42.156Z,11.63
2023-03-25T23:59:10.711Z,9.57
